Sevilla Aeropuerto en Andalucia

latitud = 37° 25' 00''N | longitud = 005° 52' 45''W
34 metros sobre el nivel del mar |

Fecha, hora, temperatura, viento dirección y velocidad, humedad y presión.

  • 21-01-2018 02:00:00 | 5.90°C | Sur |4.00 km/h | 93.00% | 1026.70 hPa
  • 21-01-2018 01:00:00 | 7.20°C | Calma |0.00 km/h | 93.00% | 1027.10 hPa
  • 21-01-2018 00:00:00 | 8.10°C | Calma |0.00 km/h | 86.00% | 1027.10 hPa
  • 20-01-2018 23:00:00 | 10.10°C | Calma |0.00 km/h | 81.00% | 1026.80 hPa
  • 20-01-2018 22:00:00 | 11.80°C | Sudoeste |10.00 km/h | 76.00% | 1026.50 hPa
  • 20-01-2018 21:00:00 | 12.80°C | Sudoeste |15.00 km/h | 77.00% | 1026.30 hPa
  • 20-01-2018 20:00:00 | 12.50°C | Sur |7.00 km/h | 82.00% | 1026.00 hPa
  • 20-01-2018 19:00:00 | 13.80°C | Sur |7.00 km/h | 77.00% | 1025.20 hPa
  • 20-01-2018 18:00:00 | 15.90°C | Sudoeste |12.00 km/h | 64.00% | 1024.70 hPa
  • 20-01-2018 17:00:00 | 16.70°C | Sudoeste |6.00 km/h | 59.00% | 1024.70 hPa
  • 20-01-2018 16:00:00 | 16.90°C | Sudoeste |5.00 km/h | 59.00% | 1024.60 hPa
  • 20-01-2018 15:00:00 | 16.30°C | Sudoeste |2.00 km/h | 63.00% | 1024.90 hPa
  • 20-01-2018 14:00:00 | 15.30°C | Calma |0.00 km/h | 68.00% | 1025.60 hPa
  • 20-01-2018 13:00:00 | 13.90°C | Calma |0.00 km/h | 76.00% | 1026.50 hPa
  • 20-01-2018 12:00:00 | 11.40°C | Calma |0.00 km/h | 85.00% | 1026.90 hPa
  • 20-01-2018 11:00:00 | 8.20°C | Calma |0.00 km/h | 92.00% | 1026.70 hPa
  • 20-01-2018 10:00:00 | 6.20°C | Calma |0.00 km/h | 96.00% | 1026.30 hPa
  • 20-01-2018 09:00:00 | 4.20°C | Calma |0.00 km/h | 96.00% | 1025.50 hPa
  • 20-01-2018 08:00:00 | 4.40°C | Calma |0.00 km/h | 96.00% | 1024.80 hPa
  • 20-01-2018 07:00:00 | 4.50°C | Noroeste |3.00 km/h | 96.00% | 1024.00 hPa
  • 20-01-2018 06:00:00 | 5.00°C | Norte |4.00 km/h | 96.00% | 1023.10 hPa
  • 20-01-2018 05:00:00 | 5.30°C | Calma |0.00 km/h | 95.00% | 1022.80 hPa
  • 20-01-2018 04:00:00 | 5.90°C | 0 |0.00 km/h | 94.00% | 1023.10 hPa
  • 20-01-2018 03:00:00 | 6.40°C | Noroeste |2.00 km/h | 94.00% | 1022.80 hPa
    • Datos gráficos mensuales de Sevilla Aeropuerto: